createdAt,value
2018-10-16T00:00:29.943Z,0
2018-10-16T00:01:10.497Z,0
2018-10-16T00:01:51.261Z,0
2018-10-16T00:02:31.850Z,0
2018-10-16T00:03:12.465Z,0
2018-10-16T00:03:52.995Z,0
2018-10-16T00:04:33.548Z,0
2018-10-16T00:05:14.123Z,0
2018-10-16T00:05:54.693Z,0
2018-10-16T00:06:35.254Z,0
2018-10-16T00:07:15.827Z,0
2018-10-16T00:07:56.380Z,0
2018-10-16T00:08:36.955Z,0
2018-10-16T00:09:17.574Z,0
2018-10-16T00:09:58.149Z,0
2018-10-16T00:10:38.717Z,0
2018-10-16T00:11:19.343Z,0
2018-10-16T00:11:59.903Z,0
2018-10-16T00:12:40.467Z,0
2018-10-16T00:13:21.026Z,0
2018-10-16T00:14:01.606Z,0
2018-10-16T00:14:42.187Z,0
2018-10-16T00:15:22.758Z,0
2018-10-16T00:16:03.330Z,0
2018-10-16T00:16:43.882Z,0
2018-10-16T00:17:24.483Z,0
2018-10-16T00:18:05.055Z,0
2018-10-16T00:18:45.625Z,0
2018-10-16T00:19:26.192Z,0
2018-10-16T00:20:06.794Z,0
2018-10-16T00:20:47.350Z,0
2018-10-16T00:21:27.916Z,0
2018-10-16T00:22:08.481Z,0
2018-10-16T00:22:49.864Z,0
2018-10-16T00:23:30.411Z,0
2018-10-16T00:24:10.964Z,0
2018-10-16T00:24:51.550Z,0
2018-10-16T00:25:32.123Z,0
2018-10-16T00:26:12.753Z,0
2018-10-16T00:26:53.305Z,0
2018-10-16T00:27:33.880Z,0
2018-10-16T00:28:14.450Z,0
2018-10-16T00:28:55.019Z,0
2018-10-16T00:29:35.611Z,0
2018-10-16T00:30:16.184Z,0
2018-10-16T00:30:56.756Z,0
2018-10-16T00:31:37.345Z,0
2018-10-16T00:32:17.875Z,0
2018-10-16T00:32:58.467Z,0
2018-10-16T00:33:39.032Z,0
2018-10-16T00:34:19.610Z,0
2018-10-16T00:35:00.184Z,0
2018-10-16T00:35:40.767Z,0
2018-10-16T00:36:21.299Z,0
2018-10-16T00:37:01.874Z,0
2018-10-16T00:37:42.443Z,0
2018-10-16T00:38:22.995Z,0
2018-10-16T00:39:03.567Z,0
2018-10-16T00:39:44.120Z,0
2018-10-16T00:40:24.735Z,0
2018-10-16T00:41:05.299Z,0
2018-10-16T00:41:45.864Z,0
2018-10-16T00:42:26.425Z,0
2018-10-16T00:43:06.973Z,0
2018-10-16T00:43:47.564Z,0
2018-10-16T00:44:28.156Z,0
2018-10-16T00:45:08.699Z,0
2018-10-16T00:45:49.265Z,0
2018-10-16T00:46:29.909Z,0
2018-10-16T00:47:10.475Z,0
2018-10-16T00:47:51.074Z,0
2018-10-16T00:48:31.648Z,0
2018-10-16T00:49:12.218Z,0
2018-10-16T00:49:52.806Z,0
2018-10-16T00:50:33.458Z,0
2018-10-16T00:51:14.047Z,0
2018-10-16T00:51:54.636Z,0
2018-10-16T00:52:35.213Z,0
2018-10-16T00:53:15.789Z,0
2018-10-16T00:53:56.350Z,0
2018-10-16T00:54:36.902Z,0
2018-10-16T00:55:17.477Z,0
2018-10-16T00:55:58.062Z,0
2018-10-16T00:56:38.619Z,0
2018-10-16T00:57:19.242Z,0
2018-10-16T00:57:59.828Z,0
2018-10-16T00:58:40.400Z,0
2018-10-16T00:59:20.960Z,0
2018-10-16T01:00:01.581Z,0
2018-10-16T01:00:42.131Z,0
2018-10-16T01:01:22.681Z,0
2018-10-16T01:02:03.303Z,0
2018-10-16T01:02:43.879Z,0
2018-10-16T01:03:24.484Z,0
2018-10-16T01:04:05.093Z,0
2018-10-16T01:04:45.681Z,0
2018-10-16T01:05:26.262Z,0
2018-10-16T01:06:06.864Z,0
2018-10-16T01:06:47.483Z,0
2018-10-16T01:07:28.049Z,0
2018-10-16T01:08:08.622Z,0
2018-10-16T01:08:49.187Z,0
2018-10-16T01:09:29.767Z,0
2018-10-16T01:10:10.348Z,0
2018-10-16T01:10:50.917Z,0
2018-10-16T01:11:31.532Z,0
2018-10-16T01:12:12.099Z,0
2018-10-16T01:12:52.658Z,0
2018-10-16T01:13:33.237Z,0
2018-10-16T01:14:13.793Z,0
2018-10-16T01:14:54.369Z,0
2018-10-16T01:15:34.959Z,0
2018-10-16T01:16:15.557Z,0
2018-10-16T01:16:56.119Z,0
2018-10-16T01:17:36.738Z,0
2018-10-16T01:18:17.296Z,0
2018-10-16T01:18:57.875Z,0
2018-10-16T01:19:38.439Z,0
2018-10-16T01:20:19.009Z,0
2018-10-16T01:20:59.591Z,0
2018-10-16T01:21:40.132Z,0
2018-10-16T01:22:20.749Z,0
2018-10-16T01:23:01.346Z,0
2018-10-16T01:23:41.915Z,0
2018-10-16T01:24:22.508Z,0
2018-10-16T01:25:03.082Z,0
2018-10-16T01:25:43.678Z,0
2018-10-16T01:26:24.222Z,0
2018-10-16T01:27:04.769Z,0
2018-10-16T01:27:45.343Z,0
2018-10-16T01:28:25.909Z,0
2018-10-16T01:29:06.485Z,0
2018-10-16T01:29:47.055Z,0
2018-10-16T01:30:27.625Z,0
2018-10-16T01:31:08.182Z,0
2018-10-16T01:31:48.767Z,0
2018-10-16T01:32:29.327Z,0
2018-10-16T01:33:09.889Z,0
2018-10-16T01:33:50.463Z,0
2018-10-16T01:34:31.025Z,0
2018-10-16T01:35:11.608Z,0
2018-10-16T01:35:52.176Z,0
2018-10-16T01:36:32.778Z,0
2018-10-16T01:37:13.337Z,0
2018-10-16T01:37:53.878Z,0
2018-10-16T01:38:34.465Z,0
2018-10-16T01:39:15.009Z,0
2018-10-16T01:39:55.585Z,0
2018-10-16T01:40:36.150Z,0
2018-10-16T01:41:16.718Z,0
2018-10-16T01:41:57.291Z,0
2018-10-16T01:42:37.877Z,0
2018-10-16T01:43:18.459Z,0
2018-10-16T01:43:59.016Z,0
2018-10-16T01:44:39.616Z,0
2018-10-16T01:45:20.184Z,0
2018-10-16T01:46:00.756Z,0
2018-10-16T01:46:41.327Z,0
2018-10-16T01:47:21.903Z,0
2018-10-16T01:48:02.475Z,0
2018-10-16T01:48:43.036Z,0
2018-10-16T01:49:23.629Z,0
2018-10-16T01:50:04.225Z,0
2018-10-16T01:50:44.797Z,0
2018-10-16T01:51:25.391Z,0
2018-10-16T01:52:05.986Z,0
2018-10-16T01:52:46.530Z,0
2018-10-16T01:53:27.101Z,0
2018-10-16T01:54:07.675Z,0
2018-10-16T01:54:48.239Z,0
2018-10-16T01:55:28.833Z,0
2018-10-16T01:56:09.381Z,0
2018-10-16T01:56:49.946Z,0
2018-10-16T01:57:30.535Z,0
2018-10-16T01:58:11.098Z,0
2018-10-16T01:58:51.690Z,0
2018-10-16T01:59:32.247Z,0
2018-10-16T02:00:12.824Z,0
2018-10-16T02:00:53.404Z,0
2018-10-16T02:01:33.949Z,0
2018-10-16T02:02:14.505Z,0
2018-10-16T02:02:55.084Z,0
2018-10-16T02:03:35.681Z,0
2018-10-16T02:04:16.256Z,0
2018-10-16T02:04:56.838Z,0
2018-10-16T02:05:37.415Z,0
2018-10-16T02:06:18.007Z,0
2018-10-16T02:06:58.554Z,0
2018-10-16T02:07:39.759Z,0
2018-10-16T02:08:20.381Z,0
2018-10-16T02:09:00.980Z,0
2018-10-16T02:09:41.544Z,0
2018-10-16T02:10:22.116Z,0
2018-10-16T02:11:02.709Z,0
2018-10-16T02:11:43.293Z,0
2018-10-16T02:12:23.891Z,0
2018-10-16T02:13:04.435Z,0
2018-10-16T02:13:45.002Z,0
2018-10-16T02:14:25.635Z,0
2018-10-16T02:15:06.138Z,0
2018-10-16T02:15:46.690Z,0
2018-10-16T02:16:27.269Z,0
2018-10-16T02:17:07.837Z,0
2018-10-16T02:17:48.415Z,0
2018-10-16T02:18:29.009Z,0
2018-10-16T02:19:09.598Z,0
2018-10-16T02:19:50.178Z,0
2018-10-16T02:20:31.783Z,0
2018-10-16T02:21:11.377Z,0
2018-10-16T02:21:51.934Z,0
2018-10-16T02:22:32.513Z,0
2018-10-16T02:23:13.110Z,0
2018-10-16T02:23:53.702Z,0
2018-10-16T02:24:34.269Z,0
2018-10-16T02:25:14.874Z,0
2018-10-16T02:25:55.432Z,0
2018-10-16T02:26:36.038Z,0
2018-10-16T02:27:16.611Z,0
2018-10-16T02:27:57.190Z,0
2018-10-16T02:28:37.773Z,0
2018-10-16T02:29:18.342Z,0
2018-10-16T02:29:58.900Z,0
2018-10-16T02:30:39.471Z,0
2018-10-16T02:31:20.048Z,0
2018-10-16T02:32:00.607Z,0
2018-10-16T02:32:41.177Z,0
2018-10-16T02:33:21.746Z,0
2018-10-16T02:34:02.318Z,0
2018-10-16T02:34:42.905Z,0
2018-10-16T02:35:23.491Z,0
2018-10-16T02:36:04.079Z,0
2018-10-16T02:36:44.655Z,0
2018-10-16T02:37:25.230Z,0
2018-10-16T02:38:05.806Z,0
2018-10-16T02:38:46.354Z,0
2018-10-16T02:39:26.971Z,0
2018-10-16T02:40:07.530Z,0
2018-10-16T02:40:48.096Z,0
2018-10-16T02:41:28.662Z,0
2018-10-16T02:42:09.246Z,0
2018-10-16T02:42:49.798Z,0
2018-10-16T02:43:30.345Z,0
2018-10-16T02:44:10.911Z,0
2018-10-16T02:44:51.468Z,0
2018-10-16T02:45:32.055Z,0
2018-10-16T02:46:12.637Z,0
2018-10-16T02:46:53.228Z,0
2018-10-16T02:47:33.798Z,0
2018-10-16T02:48:14.374Z,0
2018-10-16T02:48:54.927Z,0
2018-10-16T02:49:35.472Z,0
2018-10-16T02:50:16.024Z,0
2018-10-16T02:50:56.705Z,0
2018-10-16T02:51:37.285Z,0
2018-10-16T02:52:17.843Z,0
2018-10-16T02:52:58.422Z,0
2018-10-16T02:53:39.020Z,0
2018-10-16T02:54:19.597Z,0
2018-10-16T02:55:00.165Z,0
2018-10-16T02:55:40.733Z,0
2018-10-16T02:56:21.293Z,0
2018-10-16T02:57:01.853Z,0
2018-10-16T02:57:42.448Z,0
2018-10-16T02:58:23.002Z,0
2018-10-16T02:59:03.569Z,0
2018-10-16T02:59:44.132Z,0
2018-10-16T03:00:24.728Z,0
2018-10-16T03:01:05.283Z,0
2018-10-16T03:01:45.853Z,0
2018-10-16T03:02:26.427Z,0
2018-10-16T03:03:07.001Z,0
2018-10-16T03:03:47.573Z,0
2018-10-16T03:04:28.150Z,0
2018-10-16T03:05:08.723Z,0
2018-10-16T03:05:49.330Z,0
2018-10-16T03:06:29.909Z,0
2018-10-16T03:07:10.480Z,0
2018-10-16T03:07:51.069Z,0
2018-10-16T03:08:31.639Z,0
2018-10-16T03:09:12.180Z,0
2018-10-16T03:09:52.752Z,0
2018-10-16T03:10:33.334Z,0
2018-10-16T03:11:13.923Z,0
2018-10-16T03:11:54.475Z,0
2018-10-16T03:12:35.041Z,0
2018-10-16T03:13:15.634Z,0
2018-10-16T03:13:56.210Z,0
2018-10-16T03:14:36.780Z,0
2018-10-16T03:15:17.393Z,0
2018-10-16T03:15:57.953Z,0
2018-10-16T03:16:38.604Z,0
2018-10-16T03:17:19.131Z,0
2018-10-16T03:17:59.709Z,0
2018-10-16T03:18:40.279Z,0
2018-10-16T03:19:20.853Z,0
2018-10-16T03:20:01.422Z,0
2018-10-16T03:20:42.040Z,0
2018-10-16T03:21:22.533Z,0
2018-10-16T03:22:03.086Z,0
2018-10-16T03:22:43.645Z,0
2018-10-16T03:23:24.216Z,0
2018-10-16T03:24:04.788Z,0
2018-10-16T03:24:45.365Z,0
2018-10-16T03:25:25.937Z,0
2018-10-16T03:26:06.498Z,0
2018-10-16T03:26:47.050Z,0
2018-10-16T03:27:27.632Z,0
2018-10-16T03:28:08.195Z,0
2018-10-16T03:28:48.777Z,0
2018-10-16T03:29:29.363Z,0
2018-10-16T03:30:09.918Z,0
2018-10-16T03:30:50.497Z,0
2018-10-16T03:31:31.055Z,0
2018-10-16T03:32:11.619Z,0
2018-10-16T03:32:52.226Z,0
2018-10-16T03:33:32.778Z,0
2018-10-16T03:34:13.356Z,0
2018-10-16T03:34:53.939Z,0
2018-10-16T03:35:34.504Z,0
2018-10-16T03:36:15.089Z,0
2018-10-16T03:36:55.691Z,0
2018-10-16T03:37:36.276Z,0
2018-10-16T03:38:16.844Z,0
2018-10-16T03:38:57.410Z,0
2018-10-16T03:39:38.045Z,0
2018-10-16T03:40:18.619Z,0
2018-10-16T03:40:59.189Z,0
2018-10-16T03:41:39.754Z,0
2018-10-16T03:42:20.367Z,0
2018-10-16T03:43:00.916Z,0
2018-10-16T03:43:41.477Z,0
2018-10-16T03:44:22.093Z,0
2018-10-16T03:45:02.682Z,0
2018-10-16T03:45:43.252Z,0
2018-10-16T03:46:23.830Z,0
2018-10-16T03:47:04.407Z,0
2018-10-16T03:47:45.076Z,0
2018-10-16T03:48:25.564Z,0
2018-10-16T03:49:06.155Z,0
2018-10-16T03:49:46.708Z,0
2018-10-16T03:50:27.296Z,0
2018-10-16T03:51:07.866Z,0
2018-10-16T03:51:48.463Z,0
2018-10-16T03:52:29.063Z,0
2018-10-16T03:53:09.645Z,0
2018-10-16T03:53:50.217Z,0
2018-10-16T03:54:30.797Z,0
2018-10-16T03:55:11.357Z,0
2018-10-16T03:55:51.945Z,0
2018-10-16T03:56:32.514Z,0
2018-10-16T03:57:13.147Z,0
2018-10-16T03:57:53.663Z,0
2018-10-16T03:58:34.271Z,0
2018-10-16T03:59:14.839Z,0
2018-10-16T03:59:55.409Z,0
2018-10-16T04:00:35.977Z,0
2018-10-16T04:01:16.542Z,0
2018-10-16T04:01:57.124Z,0
2018-10-16T04:02:37.682Z,0
2018-10-16T04:03:18.244Z,0
2018-10-16T04:03:58.828Z,0
2018-10-16T04:04:39.401Z,0
2018-10-16T04:05:19.981Z,0
2018-10-16T04:06:00.546Z,0
2018-10-16T04:06:41.247Z,0
2018-10-16T04:07:21.719Z,0
2018-10-16T04:08:02.307Z,0
2018-10-16T04:08:42.894Z,0
2018-10-16T04:09:23.492Z,0
2018-10-16T04:10:04.153Z,0
2018-10-16T04:10:44.748Z,0
2018-10-16T04:11:25.308Z,0
2018-10-16T04:12:05.875Z,0
2018-10-16T04:12:46.464Z,0
2018-10-16T04:13:27.050Z,0
2018-10-16T04:14:07.632Z,0
2018-10-16T04:14:48.200Z,0
2018-10-16T04:15:28.760Z,0
2018-10-16T04:16:09.332Z,0
2018-10-16T04:16:49.886Z,0
2018-10-16T04:17:30.464Z,0
2018-10-16T04:18:11.023Z,0
2018-10-16T04:18:51.589Z,0
2018-10-16T04:19:32.138Z,0
2018-10-16T04:20:12.716Z,0
2018-10-16T04:20:53.290Z,0
2018-10-16T04:21:33.859Z,0
2018-10-16T04:22:14.455Z,0
2018-10-16T04:22:55.055Z,0
2018-10-16T04:23:35.610Z,0
2018-10-16T04:24:16.179Z,0
2018-10-16T04:24:56.750Z,0
2018-10-16T04:25:37.304Z,0
2018-10-16T04:26:17.913Z,0
2018-10-16T04:26:58.469Z,0
2018-10-16T04:27:39.053Z,0
2018-10-16T04:28:19.607Z,0
2018-10-16T04:29:00.235Z,0
2018-10-16T04:29:40.747Z,0
2018-10-16T04:30:21.317Z,0
2018-10-16T04:31:01.886Z,0
2018-10-16T04:31:42.464Z,0
2018-10-16T04:32:23.050Z,0
2018-10-16T04:33:03.624Z,0
2018-10-16T04:33:44.221Z,0
2018-10-16T04:34:24.790Z,0
2018-10-16T04:35:05.369Z,0
2018-10-16T04:35:45.930Z,0
2018-10-16T04:36:26.499Z,0
2018-10-16T04:37:07.085Z,0
2018-10-16T04:37:47.617Z,0
2018-10-16T04:38:28.187Z,0
2018-10-16T04:39:08.769Z,0
2018-10-16T04:39:49.332Z,0
2018-10-16T04:40:29.903Z,0
2018-10-16T04:41:10.444Z,0
2018-10-16T04:41:51.038Z,0
2018-10-16T04:42:31.604Z,0
2018-10-16T04:43:12.317Z,0
2018-10-16T04:43:52.945Z,0
2018-10-16T04:44:33.436Z,0
2018-10-16T04:45:14.010Z,0
2018-10-16T04:45:54.589Z,0
2018-10-16T04:46:35.155Z,0
2018-10-16T04:47:15.741Z,0
2018-10-16T04:47:56.302Z,0
2018-10-16T04:48:36.892Z,0
2018-10-16T04:49:17.457Z,0
2018-10-16T04:49:58.016Z,0
2018-10-16T04:50:38.602Z,0
2018-10-16T04:51:19.157Z,0
2018-10-16T04:51:59.749Z,0
2018-10-16T04:52:40.317Z,0
2018-10-16T04:53:20.903Z,0
2018-10-16T04:54:01.453Z,0
2018-10-16T04:54:42.082Z,0
2018-10-16T04:55:22.626Z,0
2018-10-16T04:56:03.230Z,0
2018-10-16T04:56:43.789Z,0
2018-10-16T04:57:24.370Z,0
2018-10-16T04:58:04.957Z,0
2018-10-16T04:58:45.560Z,0
2018-10-16T04:59:26.190Z,0
2018-10-16T05:00:06.761Z,0
2018-10-16T05:00:47.334Z,0
2018-10-16T05:01:27.886Z,0
2018-10-16T05:02:08.473Z,4
2018-10-16T05:02:49.085Z,4
2018-10-16T05:03:29.648Z,4
2018-10-16T05:04:10.259Z,0
2018-10-16T05:04:50.782Z,0
2018-10-16T05:05:31.396Z,0
2018-10-16T05:06:11.975Z,4
2018-10-16T05:06:52.552Z,4
2018-10-16T05:07:33.112Z,4
2018-10-16T05:08:13.673Z,4
2018-10-16T05:08:54.250Z,4
2018-10-16T05:09:34.847Z,4
2018-10-16T05:10:15.745Z,8
2018-10-16T05:10:56.315Z,8
2018-10-16T05:11:36.894Z,8
2018-10-16T05:12:17.479Z,8
2018-10-16T05:12:58.051Z,8
2018-10-16T05:13:38.641Z,12
2018-10-16T05:16:12.886Z,16
2018-10-16T05:16:53.579Z,20
2018-10-16T05:17:34.034Z,24
2018-10-16T05:18:14.556Z,24
2018-10-16T05:18:55.287Z,28
2018-10-16T05:19:35.811Z,28
2018-10-16T05:20:16.374Z,32
2018-10-16T05:20:57.154Z,36
2018-10-16T05:21:37.900Z,40
2018-10-16T05:22:18.768Z,40
2018-10-16T05:22:59.421Z,44
2018-10-16T05:23:40.164Z,48
2018-10-16T05:24:21.019Z,52
2018-10-16T05:25:01.985Z,60
2018-10-16T05:25:42.713Z,64
2018-10-16T05:26:23.509Z,68
2018-10-16T05:27:04.283Z,72
2018-10-16T05:27:46.022Z,76
2018-10-16T05:28:27.003Z,84
2018-10-16T05:29:07.665Z,92
2018-10-16T05:29:48.489Z,96
2018-10-16T05:30:29.194Z,104
2018-10-16T05:31:10.992Z,116
2018-10-16T05:31:51.926Z,124
2018-10-16T05:32:32.754Z,128
2018-10-16T05:33:13.652Z,144
2018-10-16T05:33:54.520Z,156
2018-10-16T05:34:35.436Z,164
2018-10-16T05:35:16.086Z,180
2018-10-16T05:35:56.652Z,192
2018-10-16T05:36:37.219Z,204
2018-10-16T05:37:17.771Z,224
2018-10-16T05:37:58.321Z,236
2018-10-16T05:38:38.911Z,248
2018-10-16T05:39:19.520Z,260
2018-10-16T05:40:00.016Z,276
2018-10-16T05:40:40.590Z,292
2018-10-16T05:41:21.169Z,304
2018-10-16T05:42:01.749Z,324
2018-10-16T05:42:42.296Z,340
2018-10-16T05:43:22.861Z,360
2018-10-16T05:44:03.420Z,380
2018-10-16T05:44:43.979Z,404
2018-10-16T05:45:24.552Z,424
2018-10-16T05:46:05.096Z,444
2018-10-16T05:46:45.692Z,464
2018-10-16T05:47:26.251Z,488
2018-10-16T05:48:06.825Z,508
2018-10-16T05:48:47.424Z,528
2018-10-16T05:49:27.962Z,552
2018-10-16T05:50:08.533Z,576
2018-10-16T05:50:49.094Z,596
2018-10-16T05:51:29.657Z,620
2018-10-16T05:52:10.203Z,648
2018-10-16T05:52:50.799Z,676
2018-10-16T05:53:31.367Z,704
2018-10-16T05:54:11.993Z,728
2018-10-16T05:54:52.497Z,756
2018-10-16T05:55:33.066Z,784
2018-10-16T05:56:13.649Z,808
2018-10-16T05:56:54.230Z,832
2018-10-16T05:57:34.808Z,856
2018-10-16T05:58:15.378Z,884
2018-10-16T05:58:55.956Z,912
2018-10-16T05:59:36.559Z,940
2018-10-16T06:00:17.120Z,972
2018-10-16T06:00:57.720Z,1000
2018-10-16T06:01:38.315Z,1032
2018-10-16T06:02:18.896Z,1060
2018-10-16T06:02:59.448Z,1092
2018-10-16T06:03:40.003Z,1116
2018-10-16T06:04:20.562Z,1148
2018-10-16T06:05:01.167Z,1180
2018-10-16T06:05:41.856Z,1208
2018-10-16T06:06:22.331Z,1240
2018-10-16T06:07:02.944Z,1268
2018-10-16T06:07:43.508Z,1300
2018-10-16T06:08:24.076Z,1332
2018-10-16T06:09:04.678Z,1368
2018-10-16T06:09:45.241Z,1400
2018-10-16T06:10:25.833Z,1436
2018-10-16T06:11:06.378Z,1472
2018-10-16T06:11:46.935Z,1508
2018-10-16T06:12:27.647Z,1540
2018-10-16T06:13:08.100Z,1576
2018-10-16T06:13:48.674Z,1612
2018-10-16T06:14:29.255Z,1644
2018-10-16T06:15:09.809Z,1680
2018-10-16T06:15:50.370Z,1712
2018-10-16T06:16:30.929Z,1748
2018-10-16T06:17:11.542Z,1780
2018-10-16T06:17:52.099Z,1812
2018-10-16T06:18:32.659Z,1848
2018-10-16T06:19:13.241Z,1880
2018-10-16T06:19:53.792Z,1912
2018-10-16T06:20:34.404Z,1948
2018-10-16T06:21:14.975Z,1984
2018-10-16T06:21:55.525Z,2020
2018-10-16T06:22:36.089Z,2056
2018-10-16T06:23:16.664Z,2096
2018-10-16T06:23:57.266Z,2128
2018-10-16T06:24:37.899Z,2168
2018-10-16T06:25:18.393Z,2204
2018-10-16T06:25:58.980Z,2240
2018-10-16T06:26:39.558Z,2280
2018-10-16T06:27:20.140Z,2316
2018-10-16T06:28:00.706Z,2344
2018-10-16T06:28:41.301Z,2384
2018-10-16T06:29:21.870Z,2416
2018-10-16T06:30:02.466Z,2448
2018-10-16T06:30:43.004Z,2484
2018-10-16T06:31:23.569Z,2516
2018-10-16T06:32:04.155Z,2552
2018-10-16T06:32:44.804Z,2584
2018-10-16T06:33:25.513Z,2616
2018-10-16T06:34:05.979Z,2652
2018-10-16T06:34:46.580Z,2684
2018-10-16T06:35:27.190Z,2720
2018-10-16T06:36:07.769Z,2752
2018-10-16T06:36:48.321Z,2792
2018-10-16T06:37:28.876Z,2828
2018-10-16T06:38:09.444Z,2864
2018-10-16T06:38:50.022Z,2908
2018-10-16T06:39:30.604Z,2944
2018-10-16T06:40:11.188Z,2980
2018-10-16T06:40:51.959Z,3016
2018-10-16T06:41:32.394Z,3056
2018-10-16T06:42:12.894Z,3088
2018-10-16T06:42:53.459Z,3124
2018-10-16T06:43:34.036Z,3156
2018-10-16T06:44:14.617Z,3188
2018-10-16T06:44:55.213Z,3232
2018-10-16T06:45:35.766Z,3268
2018-10-16T06:46:16.357Z,3304
2018-10-16T06:46:56.901Z,3340
2018-10-16T06:47:37.549Z,3380
2018-10-16T06:48:18.362Z,3420
2018-10-16T06:48:58.707Z,3456
2018-10-16T06:49:39.240Z,3500
2018-10-16T06:50:19.817Z,3536
2018-10-16T06:51:00.405Z,3580
2018-10-16T06:51:41.004Z,3624
2018-10-16T06:52:21.596Z,3660
2018-10-16T06:53:02.238Z,3704
2018-10-16T06:53:42.795Z,3744
2018-10-16T06:54:23.359Z,3784
2018-10-16T06:55:03.944Z,3820
2018-10-16T06:55:44.494Z,3856
2018-10-16T06:56:25.059Z,3888
2018-10-16T06:57:05.697Z,3924
2018-10-16T06:57:46.282Z,3956
2018-10-16T06:58:26.830Z,3984
2018-10-16T06:59:07.377Z,4016
2018-10-16T06:59:47.922Z,4044
2018-10-16T07:00:28.494Z,4076
2018-10-16T07:01:09.064Z,4112
2018-10-16T07:01:49.656Z,4144
2018-10-16T07:02:30.221Z,4180
2018-10-16T07:03:10.774Z,4220
2018-10-16T07:03:51.336Z,4264
2018-10-16T07:04:31.912Z,4300
2018-10-16T07:05:12.488Z,4344
2018-10-16T07:05:53.051Z,4392
2018-10-16T07:06:33.742Z,4440
2018-10-16T07:07:14.377Z,4488
2018-10-16T07:07:54.776Z,4540
2018-10-16T07:08:35.359Z,4592
2018-10-16T07:09:15.929Z,4648
2018-10-16T07:09:56.499Z,4708
2018-10-16T07:10:37.086Z,4756
2018-10-16T07:11:17.626Z,4816
2018-10-16T07:11:58.218Z,4864
2018-10-16T07:12:38.801Z,4916
2018-10-16T07:13:19.408Z,4964
2018-10-16T07:13:59.989Z,5012
2018-10-16T07:14:40.553Z,5068
2018-10-16T07:15:21.191Z,5116
2018-10-16T07:16:01.800Z,5164
2018-10-16T07:16:42.405Z,5212
2018-10-16T07:17:22.968Z,5260
2018-10-16T07:18:03.559Z,5308
2018-10-16T07:18:44.130Z,5352
2018-10-16T07:19:24.699Z,5396
2018-10-16T07:20:05.256Z,5440
2018-10-16T07:20:45.817Z,5488
2018-10-16T07:21:26.372Z,5540
2018-10-16T07:22:06.914Z,5592
2018-10-16T07:22:47.503Z,5648
2018-10-16T07:23:28.180Z,5704
2018-10-16T07:24:08.695Z,5768
2018-10-16T07:24:49.312Z,5824
2018-10-16T07:25:29.868Z,5888
2018-10-16T07:26:10.465Z,5972
2018-10-16T07:26:51.049Z,6076
2018-10-16T07:27:31.603Z,6196
2018-10-16T07:28:12.185Z,6312
2018-10-16T07:28:52.771Z,6432
2018-10-16T07:29:33.329Z,6596
2018-10-16T07:30:13.941Z,6880
2018-10-16T07:30:54.417Z,7668
2018-10-16T07:31:35.054Z,9292
2018-10-16T07:32:15.620Z,11704
2018-10-16T07:32:56.200Z,17056
2018-10-16T07:33:36.762Z,26496
2018-10-16T07:34:17.337Z,38624
2018-10-16T07:34:57.928Z,47680
2018-10-16T07:35:38.489Z,50848
2018-10-16T07:36:19.139Z,51072
2018-10-16T07:36:59.710Z,52864
2018-10-16T07:37:40.319Z,53024
2018-10-16T07:38:20.911Z,51840
2018-10-16T07:39:01.490Z,51392
2018-10-16T07:39:41.954Z,53184
2018-10-16T07:40:22.503Z,53088
2018-10-16T07:41:03.084Z,53056
2018-10-16T07:41:43.644Z,53792
2018-10-16T07:42:24.215Z,54080
2018-10-16T07:43:04.788Z,53536
2018-10-16T07:43:45.345Z,52416
2018-10-16T07:44:25.973Z,52608
2018-10-16T07:45:06.562Z,53376
2018-10-16T07:45:47.134Z,53984
2018-10-16T07:46:27.702Z,53120
2018-10-16T07:47:08.270Z,52480
2018-10-16T07:47:48.849Z,52096
2018-10-16T07:48:29.621Z,51712
2018-10-16T07:49:10.012Z,52832
2018-10-16T07:49:50.623Z,52704
2018-10-16T07:50:31.197Z,51776
2018-10-16T07:51:11.754Z,52704
2018-10-16T07:51:52.350Z,52128
2018-10-16T07:52:32.914Z,51232
2018-10-16T07:53:13.487Z,52320
2018-10-16T07:53:54.087Z,53344
2018-10-16T07:54:34.662Z,55360
2018-10-16T07:55:15.236Z,53984
2018-10-16T07:55:55.802Z,53056
2018-10-16T07:56:36.374Z,53312
2018-10-16T07:57:17.041Z,53920
2018-10-16T07:57:57.527Z,51840
2018-10-16T07:58:38.090Z,49824
2018-10-16T07:59:18.648Z,49920
2018-10-16T07:59:59.211Z,51936
2018-10-16T08:00:39.805Z,53344
2018-10-16T08:01:20.386Z,53600
2018-10-16T08:02:00.982Z,54272
2018-10-16T08:02:41.578Z,54208
2018-10-16T08:03:22.149Z,52352
2018-10-16T08:04:02.759Z,52384
2018-10-16T08:04:43.344Z,53248
2018-10-16T08:05:23.923Z,53920
2018-10-16T08:06:04.498Z,53440
2018-10-16T08:06:45.062Z,52544
2018-10-16T08:07:25.655Z,51008
2018-10-16T08:08:06.223Z,50848
2018-10-16T08:08:46.793Z,50816
2018-10-16T08:09:27.366Z,51264
2018-10-16T08:10:07.942Z,50912
2018-10-16T08:10:48.504Z,48960
2018-10-16T08:11:29.159Z,49632
2018-10-16T08:12:09.648Z,50528
2018-10-16T08:12:50.200Z,49952
2018-10-16T08:15:32.940Z,47456
2018-10-16T08:16:13.505Z,47488
2018-10-16T08:16:54.076Z,47968
2018-10-16T08:17:34.644Z,47968
2018-10-16T08:18:15.232Z,46592
2018-10-16T08:18:55.799Z,43200
2018-10-16T08:19:36.366Z,41344
2018-10-16T08:20:16.946Z,41152
2018-10-16T08:20:57.508Z,40704
2018-10-16T08:21:38.072Z,39552
2018-10-16T08:22:18.651Z,38624
2018-10-16T08:22:59.204Z,37568
2018-10-16T08:23:39.775Z,36768
2018-10-16T08:24:20.344Z,35520
2018-10-16T08:25:00.927Z,34752
2018-10-16T08:25:41.508Z,33920
2018-10-16T08:26:22.075Z,33312
2018-10-16T08:27:02.643Z,32896
2018-10-16T08:27:43.218Z,31456
2018-10-16T08:28:23.777Z,30464
2018-10-16T08:29:04.346Z,28832
2018-10-16T08:29:44.941Z,27904
2018-10-16T08:30:25.548Z,27072
2018-10-16T08:31:06.089Z,26336
2018-10-16T08:31:46.644Z,25888
2018-10-16T08:32:27.220Z,25024
2018-10-16T08:33:07.791Z,23168
2018-10-16T08:33:48.352Z,20896
2018-10-16T08:34:28.926Z,18752
2018-10-16T08:35:09.499Z,17376
2018-10-16T08:35:50.132Z,16736
2018-10-16T08:36:30.931Z,16160
2018-10-16T08:37:11.274Z,15552
2018-10-16T08:37:51.803Z,15072
2018-10-16T08:38:32.374Z,14420
2018-10-16T08:39:12.970Z,13952
2018-10-16T08:39:53.586Z,13492
2018-10-16T08:40:34.153Z,13060
2018-10-16T08:41:14.719Z,12648
2018-10-16T08:41:55.319Z,12236
2018-10-16T08:42:35.832Z,11828
2018-10-16T08:43:16.406Z,11452
2018-10-16T08:43:57.008Z,11076
2018-10-16T08:44:37.569Z,10732
2018-10-16T08:45:18.141Z,10404
2018-10-16T08:45:58.708Z,10120
2018-10-16T08:46:39.340Z,9872
2018-10-16T08:47:19.887Z,9612
2018-10-16T08:48:00.501Z,9416
2018-10-16T08:48:41.066Z,9208
2018-10-16T08:49:21.637Z,9004
2018-10-16T08:50:02.251Z,8820
2018-10-16T08:50:42.820Z,8624
2018-10-16T08:51:23.389Z,8444
2018-10-16T08:52:03.963Z,8272
2018-10-16T08:52:44.582Z,8116
2018-10-16T08:53:25.168Z,7976
2018-10-16T08:54:05.776Z,7852
2018-10-16T08:54:46.347Z,7720
2018-10-16T08:55:26.931Z,7600
2018-10-16T08:56:07.551Z,7484
2018-10-16T08:56:48.146Z,7384
2018-10-16T08:57:28.737Z,7272
2018-10-16T08:58:09.306Z,7172
2018-10-16T08:58:49.872Z,7052
2018-10-16T08:59:30.429Z,6948
2018-10-16T09:00:11.017Z,6852
2018-10-16T09:00:51.598Z,6764
2018-10-16T09:01:32.174Z,6680
2018-10-16T09:02:12.739Z,6592
2018-10-16T09:02:53.303Z,6516
2018-10-16T09:03:33.878Z,6444
2018-10-16T09:04:14.429Z,6372
2018-10-16T09:04:55.012Z,6300
2018-10-16T09:05:35.573Z,6232
2018-10-16T09:06:16.138Z,6160
2018-10-16T09:06:56.687Z,6084
2018-10-16T09:07:37.267Z,6016
2018-10-16T09:08:17.889Z,5960
2018-10-16T09:08:58.473Z,5908
2018-10-16T09:09:39.023Z,5844
2018-10-16T09:10:19.602Z,5768
2018-10-16T09:11:00.163Z,5688
2018-10-16T09:11:40.721Z,5636
2018-10-16T09:12:21.283Z,5576
2018-10-16T09:13:01.857Z,5532
2018-10-16T09:13:42.419Z,5500
2018-10-16T09:14:23.093Z,5492
2018-10-16T09:15:03.648Z,5468
2018-10-16T09:15:44.227Z,5448
2018-10-16T09:16:24.785Z,5424
2018-10-16T09:17:05.359Z,5404
2018-10-16T09:17:45.935Z,5400
2018-10-16T09:18:26.662Z,5392
2018-10-16T09:19:07.234Z,5376
2018-10-16T09:19:47.806Z,5352
2018-10-16T09:20:28.399Z,5332
2018-10-16T09:21:08.931Z,5312
2018-10-16T09:21:49.509Z,5296
2018-10-16T09:22:30.059Z,5276
2018-10-16T09:23:10.651Z,5256
2018-10-16T09:23:51.213Z,5236
2018-10-16T09:24:31.804Z,5216
2018-10-16T09:25:12.371Z,5196
2018-10-16T09:25:52.916Z,5176
2018-10-16T09:26:33.539Z,5152
2018-10-16T09:27:14.101Z,5132
2018-10-16T09:27:54.649Z,5108
2018-10-16T09:28:35.246Z,5096
2018-10-16T09:29:15.787Z,5080
2018-10-16T09:29:56.365Z,5068
2018-10-16T09:30:36.964Z,5052
2018-10-16T09:31:17.516Z,5040
2018-10-16T09:31:58.106Z,5020
2018-10-16T09:32:38.683Z,5000
2018-10-16T09:33:19.254Z,4996
2018-10-16T09:33:59.816Z,4976
2018-10-16T09:34:40.407Z,4952
2018-10-16T09:35:20.974Z,4936